LIRALIRZ

Guest
Details From LIRA - CIAMPINO
To LIRZ - PERUGIA
Flight Number -
Tags generated
Created
Modified
Stats Distance 78 nm / 145 km
Max Altitude 9,600 ft / 2,926 m
Waypoints 3
Social Downloads 2
Likes 0
Share VATSIM

Download

Looking for another format? Having issues loading an existing format? Contact us
Advertisement - Login to hide

Notes

Basic altitude profile: - Ascent Rate: 700ft/min - Ascent Speed: 110kts - Cruise Altitude: 2000ft - Cruise Speed: 420kts - Descent Rate: 1500ft/min - Descent Speed: 250kts Options: - Use NATs: yes - Use PACOTS: yes - Use low airways: yes - Use high airways: no

Route

LIRA TIBER LIRZ

ID Type Via Altitude Latitude Longitude Leg Dist Tot Dist Heading (true) Name
O LIRA APT - 0 ft / 0 m 41.79923˚ 12.59492˚ - 0 nm - CIAMPINO
TIBER FIX - 9,600 ft / 2,926 m 42.24889˚ 12.59889˚ 27 nm 27 nm 0° / 0° -
O LIRZ APT - 0 ft / 0 m 43.09619˚ 12.51332˚ 51 nm 78 nm 356° / 356° PERUGIA

Altitude Profile

Advertisement - Login to hide

LIRA

Details ICAO LIRA (CIA)
Name CIAMPINO
Region Italy
Timezone Europe/Rome (UTC+1.0)
Stats Elevation 427 ft / 130 m (AMSL)
Location 41.799228° 12.594917°
Runways 1
Magnetic Variation 3.057° E

METAR

LIRA 121750Z 17009KT 7000 FEW015 BKN030 15/13 Q1015

Decode

TAF

TAF LIRA 121700Z 1218/1318 18010KT 6000 SCT015 BKN030 TEMPO 1218/1306 3000 SHRA BECMG 1221/1223 VRB05KT

Decode

Departure Runways

ID Width Length Bearing (true) Bearing (mag) Surface Threshold Offset Overrun Length
15 154 ft / 47 m 7,246 ft / 2,209 m 152.79° 149.73° Asphalt 0 ft / 0 m 0 ft / 0 m
33 154 ft / 47 m 7,246 ft / 2,209 m 332.80° 329.74° Asphalt 0 ft / 0 m 0 ft / 0 m

LIRZ

Details ICAO LIRZ (PEG)
Name PERUGIA
Region Italy
Timezone Europe/Rome (UTC+1.0)
Stats Elevation 693 ft / 211 m (AMSL)
Location 43.096192° 12.513325°
Runways 1
Magnetic Variation 3.104° E

METAR

LIRZ 121750Z VRB03KT 8000 -RA BKN020 09/09 Q1015 RERA

Decode

TAF

TAF TAF LIRZ 121700Z 1218/1318 VRB05KT 7000 BKN020 BKN050 TEMPO 1218/1306 SHRA

Decode

Destination Runways

ID Width Length Bearing (true) Bearing (mag) Surface Threshold Offset Overrun Length
01 154 ft / 47 m 5,783 ft / 1,763 m 14.26° 11.16° Asphalt 0 ft / 0 m 328 ft / 100 m
19 154 ft / 47 m 5,783 ft / 1,763 m 194.27° 191.17° Asphalt 85 ft / 26 m 0 ft / 0 m

Approach Navaids

Runway Type Ident Frequency Range Bearing (true) Bearing (mag) Slope Elevation
01 Localiser IPE 110.95 MHz 18 nm / 33 km 14.25° 11.15° - 693 ft / 211 m (AMSL)
01 Glidescope IPE 110.95 MHz 10 nm / 19 km 14.26° 11.16° 3.40° 667 ft / 203 m (AMSL)
01 DME IPE 110.95 MHz 18 nm / 33 km - - - 667 ft / 203 m (AMSL)

Popular Alternatives